Barney, North Dakota
Current Conditions -  °F | °C
As of 9:15 PM on Monday 26 Jan 2015 (Local Time) from KBWP Reporting Station
Overcast Overcast  
Wind Chill: 25°   Ceiling: 12000
Heat Index: 30°   Visibility: 10mi
Dew Point: 28°   Wind: 5mph
Humidity: 93%   Direction: 350°N
Pressure: 30"   Gusts: NA
Location:  46.27°N, 97°W
Report Text: KBWP 270315Z AUTO 35004KT 10SM OVC120 M01/M02 A3000 RMK AO1
Loading
Personal Weather Stations






























Interactive Weather Map New forecast layout! Learn more

10-Day Weather Forecast

Advertisements
Track Severe Weather on mobile